This is the latest recevied weather packets stored in our database for station/object DL0GY-13. If no packets are shown the sender has not sent any weather packets the latest 10 day(s).
| Time | Temp. | Humidity | Pressure | Rain* | Wind** | Luminosity | Snow |
|---|---|---|---|---|---|---|---|
| 1777419635 | 9.44° C | 48% | 1024.2 hPa | 0 mm | - | - | - |
| 1777419036 | 10° C | 47% | 1024 hPa | 0 mm | - | - | - |
| 1777417236 | 11.11° C | 46% | 1023.7 hPa | 0 mm | - | - | - |
| 1777416635 | 11.11° C | 46% | 1023.8 hPa | 0 mm | - | - | - |
| 1777415435 | 11.67° C | 46% | 1023.6 hPa | 0 mm | - | - | - |
| 1777413635 | 11.67° C | 45% | 1023.3 hPa | 0 mm | - | - | - |
| 1777413035 | 11.67° C | 45% | 1023.5 hPa | 0 mm | - | - | - |
| 1777412435 | 12.22° C | 44% | 1023.2 hPa | 0 mm | - | - | - |
| 1777411836 | 12.22° C | 44% | 1023.1 hPa | 0 mm | - | - | - |
| 1777411235 | 12.22° C | 44% | 1023.1 hPa | 0 mm | - | - | - |
| 1777410636 | 12.22° C | 43% | 1022.9 hPa | 0 mm | - | - | - |
| 1777409436 | 12.22° C | 42% | 1022.6 hPa | 0 mm | - | - | - |
| 1777407636 | 12.78° C | 41% | 1022.5 hPa | 0 mm | - | - | - |
| 1777406436 | 12.78° C | 40% | 1022.3 hPa | 0 mm | - | - | - |
| 1777402835 | 13.89° C | 39% | 1021.7 hPa | 0 mm | - | - | - |
| 1777402235 | 14.44° C | 40% | 1021.6 hPa | 0 mm | - | - | - |
| 1777400435 | 15° C | 40% | 1021.3 hPa | 0 mm | - | - | - |
| 1777399835 | 15° C | 40% | 1021.2 hPa | 0 mm | - | - | - |
| 1777398635 | 15.56° C | 39% | 1020.9 hPa | 0 mm | - | - | - |
| 1777398035 | 15.56° C | 39% | 1020.9 hPa | 0 mm | - | - | - |
| 1777396836 | 16.67° C | 38% | 1020.8 hPa | 0 mm | - | - | - |
| 1777396236 | 16.67° C | 37% | 1020.6 hPa | 0 mm | - | - | - |
| 1777395035 | 16.67° C | 38% | 1020.5 hPa | 0 mm | - | - | - |
| 1777394436 | 16.67° C | 36% | 1020.6 hPa | 0 mm | - | - | - |
| 1777393835 | 16.67° C | 37% | 1020.6 hPa | 0 mm | - | - | - |
* Rain latest hour (hover to see other rain measurements)
** Current wind speed in m/s (hover to see current wind gust speed)